Time;durP1;ratioP1;P1;durP2;ratioP2;P2;SDS_P1;SDS_P2;PMS_P1;PMS_P2;Temp;Humidity;BMP_temperature;BMP_pressure;BME280_temperature;BME280_humidity;BME280_pressure;Samples;Min_cycle;Max_cycle;Signal;HPM_P1;HPM_P2
2022/09/15 00:00:05;;;;;;;13.58;12.33;;;;;;;15.33;97.11;98708.55;1753714;80;20949;-70
2022/09/15 00:02:32;;;;;;;13.05;11.65;;;;;;;15.30;97.02;98711.08;1753809;81;21026;-68
2022/09/15 00:04:59;;;;;;;10.13;9.23;;;;;;;15.30;97.21;98707.02;1753497;80;21078;-70
2022/09/15 00:07:26;;;;;;;11.53;9.88;;;;;;;15.31;97.29;98708.59;1753593;81;21023;-72
2022/09/15 00:09:53;;;;;;;11.70;10.70;;;;;;;15.34;97.33;98707.45;1754088;80;21236;-70
2022/09/15 00:12:19;;;;;;;11.30;10.38;;;;;;;15.37;97.15;98704.13;1753509;81;20971;-69
2022/09/15 00:14:46;;;;;;;11.48;10.38;;;;;;;15.42;97.00;98705.92;1753459;80;21043;-69
2022/09/15 00:17:14;;;;;;;11.05;10.03;;;;;;;15.42;96.66;98701.30;1753364;81;21071;-73
2022/09/15 00:19:40;;;;;;;12.20;10.90;;;;;;;15.42;96.56;98712.14;1753688;80;21489;-70
2022/09/15 00:22:07;;;;;;;11.05;9.43;;;;;;;15.42;96.51;98704.56;1753535;81;21915;-69
2022/09/15 00:24:34;;;;;;;11.03;10.13;;;;;;;15.39;96.51;98703.28;1753753;80;21532;-72
2022/09/15 00:27:01;;;;;;;10.30;9.40;;;;;;;15.38;96.71;98696.80;1738520;81;20971;-71
2022/09/15 00:29:28;;;;;;;10.25;9.45;;;;;;;15.38;96.71;98692.19;1742534;81;20972;-71
2022/09/15 00:31:54;;;;;;;11.15;10.05;;;;;;;15.40;96.85;98687.80;1753808;80;21079;-71
2022/09/15 00:34:21;;;;;;;10.70;9.80;;;;;;;15.40;96.84;98685.89;1753485;80;21130;-68
2022/09/15 00:36:47;;;;;;;10.78;9.83;;;;;;;15.38;96.80;98688.13;1753401;81;21043;-68
2022/09/15 00:39:14;;;;;;;12.13;11.03;;;;;;;15.36;96.76;98689.52;1753397;81;21090;-68
2022/09/15 00:41:41;;;;;;;12.82;11.63;;;;;;;15.32;96.81;98693.40;1733670;81;21034;-69
2022/09/15 00:44:48;;;;;;;12.13;10.08;;;;;;;15.29;96.91;98699.44;1734323;81;21067;-70
2022/09/15 00:47:14;;;;;;;11.12;10.03;;;;;;;15.28;97.20;98694.57;1743278;82;21844;-69
2022/09/15 00:49:41;;;;;;;11.57;10.58;;;;;;;15.30;97.26;98694.25;1801727;79;21572;-69
2022/09/15 00:52:18;;;;;;;13.05;11.43;;;;;;;15.31;97.23;98697.21;1793465;78;21015;-69
2022/09/15 00:55:08;;;;;;;12.33;11.10;;;;;;;15.30;97.26;98697.53;1775508;79;21011;-69
2022/09/15 00:57:47;;;;;;;12.73;11.53;;;;;;;15.31;97.27;98694.50;1807035;79;21005;-71
2022/09/15 01:00:16;;;;;;;11.75;10.63;;;;;;;15.32;97.21;98695.30;1788276;78;21210;-69
2022/09/15 01:02:44;;;;;;;10.28;9.33;;;;;;;15.33;97.14;98692.30;1777481;79;21123;-70
2022/09/15 01:05:14;;;;;;;12.82;11.50;;;;;;;15.31;97.13;98689.63;1788015;78;21011;-70
2022/09/15 01:07:50;;;;;;;11.57;10.43;;;;;;;15.27;97.24;98688.09;1726321;81;21008;-70
2022/09/15 01:10:27;;;;;;;13.32;10.60;;;;;;;15.29;97.35;98684.54;1727026;81;21039;-71
2022/09/15 01:12:56;;;;;;;12.00;10.75;;;;;;;15.29;97.45;98685.89;1703489;84;21111;-69
2022/09/15 01:15:27;;;;;;;13.48;12.07;;;;;;;15.20;97.13;98691.79;1745610;80;21556;-67
2022/09/15 01:18:15;;;;;;;13.25;11.50;;;;;;;15.07;97.41;98691.23;1747839;81;21066;-70
2022/09/15 01:21:03;;;;;;;13.75;12.15;;;;;;;15.01;97.84;98687.05;1758694;80;21043;-67
2022/09/15 01:24:10;;;;;;;13.15;11.73;;;;;;;14.99;98.13;98677.06;1758727;81;21158;-71
2022/09/15 01:27:12;;;;;;;14.05;12.60;;;;;;;14.95;98.43;98675.52;1710810;83;21265;-68
2022/09/15 01:30:09;;;;;;;14.53;13.03;;;;;;;14.91;98.77;98669.67;1669441;83;21075;-71
2022/09/15 01:33:05;;;;;;;14.28;13.00;;;;;;;14.89;99.12;98666.45;1728323;82;21050;-71
2022/09/15 01:35:40;;;;;;;14.28;12.80;;;;;;;14.68;100.00;98667.41;1746307;80;21055;-66
2022/09/15 01:38:35;;;;;;;15.15;13.55;;;;;;;14.43;100.00;98658.45;1778135;80;21030;-72
2022/09/15 01:41:07;;;;;;;17.12;13.22;;;;;;;14.19;100.00;98653.20;1745224;81;21087;-78
2022/09/15 01:43:37;;;;;;;15.48;14.07;;;;;;;14.00;100.00;98649.22;1740872;81;20958;-77
2022/09/15 01:46:04;;;;;;;19.27;14.28;;;;;;;13.91;100.00;98650.97;1752011;81;20990;-77
2022/09/15 01:48:31;;;;;;;14.00;12.60;;;;;;;13.88;100.00;98651.58;1803482;78;21020;-78
2022/09/15 01:50:59;;;;;;;15.08;13.62;;;;;;;13.88;100.00;98651.58;1794497;78;21066;-78
2022/09/15 01:53:26;;;;;;;15.53;14.13;;;;;;;13.83;100.00;98648.41;1781332;78;21776;-73
2022/09/15 01:56:07;;;;;;;13.13;11.93;;;;;;;13.78;100.00;98647.69;1799604;78;20980;-73
2022/09/15 01:58:35;;;;;;;18.15;13.00;;;;;;;13.77;100.00;98647.42;1784385;79;20996;-73
2022/09/15 02:01:28;;;;;;;17.35;15.55;;;;;;;13.84;100.00;98642.45;1774821;78;21600;-73
2022/09/15 02:03:56;;;;;;;15.72;13.75;;;;;;;13.95;100.00;98638.48;1759208;81;21473;-73
2022/09/15 02:06:38;;;;;;;14.98;13.28;;;;;;;14.05;100.00;98634.80;1797971;78;21800;-73
2022/09/15 02:09:12;;;;;;;12.10;11.00;;;;;;;14.12;100.00;98633.84;1804712;78;21011;-72
2022/09/15 02:11:46;;;;;;;14.53;13.22;;;;;;;14.19;100.00;98630.21;1790448;78;21019;-72
2022/09/15 02:14:27;;;;;;;13.65;12.37;;;;;;;14.13;100.00;98637.61;1790577;80;21042;-72
2022/09/15 02:16:53;;;;;;;15.00;13.22;;;;;;;14.01;100.00;98634.57;1781287;79;21953;-73
2022/09/15 02:19:35;;;;;;;14.00;12.73;;;;;;;13.89;100.00;98632.36;1790428;78;21236;-74
2022/09/15 02:22:22;;;;;;;15.72;12.82;;;;;;;13.85;100.00;98631.91;1759564;81;20900;-73
2022/09/15 02:25:01;;;;;;;13.75;12.55;;;;;;;13.92;100.00;98639.06;1730279;80;21053;-74
2022/09/15 02:27:31;;;;;;;14.53;13.22;;;;;;;14.00;100.00;98635.70;1749852;81;21669;-72
2022/09/15 02:30:04;;;;;;;18.02;15.30;;;;;;;14.10;100.00;98632.78;1723914;82;21542;-74
2022/09/15 02:32:31;;;;;;;13.48;12.35;;;;;;;14.15;100.00;98632.69;1734236;82;21132;-73
2022/09/15 02:34:57;;;;;;;11.68;10.68;;;;;;;14.24;100.00;98636.87;1733601;81;21109;-75
2022/09/15 02:37:25;;;;;;;13.78;12.58;;;;;;;14.27;100.00;98634.38;1733919;82;21057;-74
2022/09/15 02:39:56;;;;;;;12.60;11.35;;;;;;;14.24;100.00;98628.22;1742153;81;21072;-73
2022/09/15 02:42:25;;;;;;;14.53;13.22;;;;;;;14.16;100.00;98629.44;1753328;81;20969;-73
2022/09/15 02:44:51;;;;;;;13.62;12.43;;;;;;;14.07;100.00;98624.47;1741100;81;21798;-73
2022/09/15 02:47:18;;;;;;;14.05;12.70;;;;;;;14.08;100.00;98624.73;1695637;83;21004;-73
2022/09/15 02:49:44;;;;;;;14.35;13.10;;;;;;;14.12;100.00;98622.48;1794693;78;21388;-73
2022/09/15 02:52:11;;;;;;;13.85;12.65;;;;;;;14.10;100.00;98621.19;1793144;79;21568;-73
2022/09/15 02:54:38;;;;;;;13.43;11.97;;;;;;;14.10;100.00;98623.90;1794624;78;21077;-73
2022/09/15 02:57:05;;;;;;;14.38;13.08;;;;;;;14.08;100.00;98622.03;1806971;79;21112;-74
2022/09/15 03:02:18;;;;;;;15.28;13.75;;;;;;;14.16;100.00;98621.33;1744823;82;21612;-73
2022/09/15 03:04:46;;;;;;;14.58;13.10;;;;;;;14.09;100.00;98618.23;1750221;79;21050;-73
2022/09/15 03:07:13;;;;;;;14.25;12.88;;;;;;;14.10;100.00;98621.19;1775447;80;20991;-73
2022/09/15 03:09:40;;;;;;;13.60;11.68;;;;;;;14.08;100.00;98613.37;1775311;79;22282;-75
2022/09/15 03:12:08;;;;;;;15.03;13.72;;;;;;;14.08;100.00;98616.63;1775326;80;21576;-73
2022/09/15 03:14:34;;;;;;;15.48;13.60;;;;;;;14.06;100.00;98614.75;1775393;79;21484;-70
2022/09/15 03:17:03;;;;;;;14.98;13.45;;;;;;;14.08;100.00;98612.56;1775119;79;21572;-70
2022/09/15 03:19:30;;;;;;;15.83;13.50;;;;;;;14.11;100.00;98607.90;1756007;80;21057;-71
2022/09/15 03:21:57;;;;;;;15.43;13.95;;;;;;;14.20;100.00;98610.16;1775095;80;21012;-71
2022/09/15 03:24:23;;;;;;;15.50;13.80;;;;;;;14.26;100.00;98611.67;1775355;80;21058;-73
2022/09/15 03:26:49;;;;;;;14.87;13.22;;;;;;;14.32;100.00;98609.93;1775697;79;20959;-72
2022/09/15 03:29:16;;;;;;;13.10;11.90;;;;;;;14.31;100.00;98604.27;1775438;80;21093;-71
2022/09/15 03:31:42;;;;;;;18.77;16.02;;;;;;;14.28;100.00;98595.41;1755598;80;21091;-71
2022/09/15 03:34:09;;;;;;;15.70;14.10;;;;;;;14.20;100.00;98594.73;1775603;80;21200;-71
2022/09/15 03:36:37;;;;;;;13.58;12.35;;;;;;;14.14;100.00;98598.66;1775085;79;21483;-70
2022/09/15 03:39:03;;;;;;;14.55;12.03;;;;;;;14.16;100.00;98586.98;1775456;80;21524;-69
2022/09/15 03:41:30;;;;;;;14.78;13.45;;;;;;;14.09;100.00;98581.19;1775488;79;21496;-71
2022/09/15 03:43:57;;;;;;;14.20;12.80;;;;;;;14.04;100.00;98573.71;1775518;80;21118;-71
2022/09/15 03:46:23;;;;;;;10.85;9.95;;;;;;;14.03;100.00;98573.45;1775500;79;21241;-70
2022/09/15 03:48:50;;;;;;;16.17;14.18;;;;;;;13.95;100.00;98572.27;1773127;80;21506;-71
2022/09/15 03:51:17;;;;;;;15.25;13.75;;;;;;;13.86;100.00;98566.72;1773063;79;20908;-70
2022/09/15 03:53:43;;;;;;;15.05;13.70;;;;;;;13.80;100.00;98571.19;1772491;80;20991;-71
2022/09/15 03:56:15;;;;;;;15.23;13.48;;;;;;;13.77;100.00;98571.22;1752911;80;21070;-72
2022/09/15 03:58:41;;;;;;;16.40;14.70;;;;;;;13.79;100.00;98581.19;1772369;80;21270;-69
2022/09/15 04:01:08;;;;;;;16.02;14.28;;;;;;;13.86;100.00;98572.12;1772003;79;21501;-68
2022/09/15 04:03:34;;;;;;;14.18;12.90;;;;;;;13.92;100.00;98573.64;1772414;80;21048;-74
2022/09/15 04:06:02;;;;;;;16.15;14.45;;;;;;;13.96;100.00;98567.08;1772294;80;21601;-70
2022/09/15 04:08:28;;;;;;;17.92;16.23;;;;;;;13.94;100.00;98564.70;1772539;80;21006;-70
2022/09/15 04:10:56;;;;;;;13.65;12.50;;;;;;;13.93;100.00;98569.84;1772641;79;22221;-70
2022/09/15 04:13:23;;;;;;;16.05;14.53;;;;;;;13.92;100.00;98570.14;1772444;80;21051;-72
2022/09/15 04:16:02;;;;;;;15.28;12.60;;;;;;;13.87;100.00;98583.20;1772466;79;20968;-71
2022/09/15 04:18:29;;;;;;;26.02;23.18;;;;;;;13.83;100.00;98582.73;1772571;80;21043;-70
2022/09/15 04:21:02;;;;;;;15.85;14.45;;;;;;;13.79;100.00;98579.03;1773098;79;21051;-71
2022/09/15 04:23:29;;;;;;;15.35;13.88;;;;;;;13.77;100.00;98576.63;1772731;80;21046;-71
2022/09/15 04:26:01;;;;;;;16.90;15.40;;;;;;;13.73;100.00;98573.45;1772753;79;20911;-73
2022/09/15 04:28:30;;;;;;;16.45;13.93;;;;;;;13.67;100.00;98574.67;1773085;80;21047;-70
2022/09/15 04:31:09;;;;;;;14.83;13.30;;;;;;;13.63;100.00;98571.73;1772638;79;21016;-70
2022/09/15 04:33:36;;;;;;;16.50;14.43;;;;;;;13.63;100.00;98573.64;1772388;79;21059;-70
2022/09/15 04:36:06;;;;;;;15.78;14.30;;;;;;;13.66;100.00;98575.22;1772921;79;21201;-70
2022/09/15 04:38:34;;;;;;;14.43;13.03;;;;;;;13.69;100.00;98587.31;1772271;80;20959;-71
2022/09/15 04:41:01;;;;;;;15.35;12.33;;;;;;;13.70;100.00;98585.68;1771731;79;21032;-71
2022/09/15 04:43:27;;;;;;;16.17;14.73;;;;;;;13.69;100.00;98588.12;1772668;80;21095;-70
2022/09/15 04:45:54;;;;;;;14.45;12.85;;;;;;;13.68;100.00;98584.36;1753252;80;21364;-73
2022/09/15 04:48:22;;;;;;;14.43;12.90;;;;;;;13.68;100.00;98587.06;1770967;80;21328;-70
2022/09/15 04:50:48;;;;;;;16.85;15.20;;;;;;;13.68;100.00;98586.52;1743037;81;20916;-69
2022/09/15 04:53:15;;;;;;;16.35;14.68;;;;;;;13.68;100.00;98586.52;1781384;79;22182;-71
2022/09/15 04:55:42;;;;;;;17.42;15.72;;;;;;;13.78;100.00;98578.78;1779210;79;21023;-70
2022/09/15 04:58:08;;;;;;;20.43;17.60;;;;;;;13.78;100.00;98561.21;1787756;80;21003;-71
2022/09/15 05:00:43;;;;;;;18.23;13.75;;;;;;;13.76;100.00;98551.27;1780348;79;21129;-72
2022/09/15 05:03:12;;;;;;;16.40;14.70;;;;;;;13.76;100.00;98536.41;1768177;79;21006;-69
2022/09/15 05:05:39;;;;;;;17.07;15.00;;;;;;;13.77;100.00;98546.09;1777149;79;20963;-70
2022/09/15 05:08:07;;;;;;;15.48;14.05;;;;;;;13.78;100.00;98545.00;1787971;80;21050;-71
2022/09/15 05:10:37;;;;;;;14.18;12.80;;;;;;;13.84;100.00;98536.50;1773578;79;21081;-71
2022/09/15 05:13:03;;;;;;;17.62;14.35;;;;;;;13.88;100.00;98538.05;1769157;81;21147;-70
2022/09/15 05:15:32;;;;;;;13.60;12.33;;;;;;;13.90;100.00;98544.78;1776064;79;21006;-71
2022/09/15 05:18:00;;;;;;;15.08;13.58;;;;;;;13.95;100.00;98541.98;1782542;79;21081;-71
2022/09/15 05:20:26;;;;;;;15.50;13.90;;;;;;;13.93;100.00;98549.58;1738196;80;21137;-71
2022/09/15 05:22:53;;;;;;;14.38;13.05;;;;;;;13.83;100.00;98548.41;1769016;79;20929;-70
2022/09/15 05:25:20;;;;;;;17.90;13.05;;;;;;;13.82;100.00;98547.34;1769082;81;21082;-72
2022/09/15 05:27:46;;;;;;;16.52;13.83;;;;;;;13.87;100.00;98544.55;1769157;79;21035;-72
2022/09/15 05:30:13;;;;;;;13.38;12.18;;;;;;;13.93;100.00;98535.26;1769152;81;21034;-70
2022/09/15 05:32:39;;;;;;;15.40;13.88;;;;;;;14.02;100.00;98534.00;1769259;81;21134;-71
2022/09/15 05:35:06;;;;;;;13.90;12.45;;;;;;;14.05;100.00;98535.58;1769305;79;20986;-70
2022/09/15 05:37:33;;;;;;;12.75;10.78;;;;;;;14.11;100.00;98530.84;1743174;81;21524;-71
2022/09/15 05:39:59;;;;;;;48.05;39.98;;;;;;;14.19;100.00;98528.80;1769414;79;21357;-69
2022/09/15 05:42:28;;;;;;;18.90;17.07;;;;;;;14.23;100.00;98521.69;1768925;81;20946;-70
2022/09/15 05:44:54;;;;;;;15.23;13.75;;;;;;;14.18;100.00;98525.30;1719562;81;21064;-70
2022/09/15 05:47:21;;;;;;;15.65;13.50;;;;;;;14.19;100.00;98523.40;1768985;81;21003;-70
2022/09/15 05:49:48;;;;;;;15.75;14.23;;;;;;;14.20;100.00;98528.48;1769241;79;21305;-69
2022/09/15 05:52:15;;;;;;;15.53;13.93;;;;;;;14.23;100.00;98534.66;1785138;79;21090;-71
2022/09/15 05:54:41;;;;;;;14.38;12.98;;;;;;;14.25;100.00;98537.84;1787731;80;21516;-68
2022/09/15 05:57:08;;;;;;;15.13;13.68;;;;;;;14.33;100.00;98532.30;1780562;80;21087;-69
2022/09/15 05:59:38;;;;;;;16.25;14.75;;;;;;;14.33;100.00;98530.40;1776337;79;21647;-73
2022/09/15 06:02:03;;;;;;;14.87;13.38;;;;;;;14.31;100.00;98529.89;1782367;80;21149;-73
2022/09/15 06:04:33;;;;;;;15.03;13.62;;;;;;;14.38;100.00;98537.09;1768811;81;21558;-71
2022/09/15 06:06:59;;;;;;;15.90;14.30;;;;;;;14.43;100.00;98537.53;1769166;81;21078;-72
2022/09/15 06:09:27;;;;;;;16.23;14.65;;;;;;;14.50;100.00;98531.14;1778734;79;20942;-71
2022/09/15 06:11:54;;;;;;;16.30;14.80;;;;;;;14.56;100.00;98535.34;1771244;79;21041;-71
2022/09/15 06:14:21;;;;;;;14.95;12.88;;;;;;;14.58;100.00;98538.53;1769140;81;21350;-71
2022/09/15 06:16:47;;;;;;;18.20;14.58;;;;;;;14.53;100.00;98542.70;1768683;81;21013;-72
2022/09/15 06:19:14;;;;;;;13.00;11.88;;;;;;;14.50;100.00;98553.33;1768936;79;21081;-74
2022/09/15 06:21:40;;;;;;;17.42;14.70;;;;;;;14.47;100.00;98553.95;1785767;79;21135;-70
2022/09/15 06:24:11;;;;;;;14.73;13.20;;;;;;;14.45;100.00;98552.89;1768909;81;21022;-70
2022/09/15 06:26:37;;;;;;;14.07;12.73;;;;;;;14.53;100.00;98550.81;1768897;81;21837;-70
2022/09/15 06:29:04;;;;;;;16.12;14.43;;;;;;;14.56;100.00;98550.77;1768999;79;21024;-73
2022/09/15 06:31:31;;;;;;;14.45;13.10;;;;;;;14.57;100.00;98551.83;1768540;79;21073;-70
2022/09/15 06:33:58;;;;;;;14.00;12.70;;;;;;;14.64;100.00;98560.33;1768900;81;21561;-70
2022/09/15 06:36:27;;;;;;;15.03;13.50;;;;;;;14.70;100.00;98559.66;1740860;80;21093;-70
2022/09/15 06:38:54;;;;;;;15.10;11.63;;;;;;;14.65;100.00;98557.88;1769142;79;21254;-71
2022/09/15 06:41:20;;;;;;;14.68;13.15;;;;;;;14.64;100.00;98545.98;1770093;79;20966;-75
2022/09/15 06:43:48;;;;;;;15.95;14.50;;;;;;;14.66;100.00;98540.54;1751163;81;21054;-72
2022/09/15 06:46:17;;;;;;;14.50;13.10;;;;;;;14.68;100.00;98533.45;1768414;79;21551;-75
2022/09/15 06:48:44;;;;;;;14.58;13.25;;;;;;;14.65;100.00;98524.59;1767911;79;21050;-72
2022/09/15 06:51:13;;;;;;;17.35;13.83;;;;;;;14.60;100.00;98519.30;1769472;81;21179;-75
2022/09/15 06:53:40;;;;;;;14.83;13.45;;;;;;;14.57;100.00;98525.33;1768960;79;21027;-74
2022/09/15 06:56:10;;;;;;;14.83;13.43;;;;;;;14.56;100.00;98513.70;1762460;79;20966;-72
2022/09/15 06:58:39;;;;;;;17.02;15.53;;;;;;;14.58;100.00;98510.12;1769646;79;21013;-71
2022/09/15 07:01:21;;;;;;;13.13;11.85;;;;;;;14.61;100.00;98515.48;1769664;81;21590;-72
2022/09/15 07:03:48;;;;;;;14.83;13.58;;;;;;;14.65;100.00;98516.48;1769406;81;21304;-72
2022/09/15 07:06:15;;;;;;;18.07;13.60;;;;;;;14.67;100.00;98510.22;1769355;79;21536;-72
2022/09/15 07:08:41;;;;;;;15.35;13.93;;;;;;;14.71;100.00;98520.13;1769346;81;21083;-72
2022/09/15 07:11:09;;;;;;;15.15;13.38;;;;;;;14.73;100.00;98532.78;1769312;79;21093;-73
2022/09/15 07:13:37;;;;;;;18.42;16.52;;;;;;;14.77;100.00;98528.36;1769228;81;21006;-71
2022/09/15 07:16:06;;;;;;;26.57;19.57;;;;;;;14.87;100.00;98532.73;1769518;79;21206;-71
2022/09/15 07:18:33;;;;;;;16.93;15.28;;;;;;;15.02;100.00;98537.00;1769064;81;21002;-72
2022/09/15 07:21:02;;;;;;;16.48;14.85;;;;;;;15.17;100.00;98536.09;1769569;79;21022;-70
2022/09/15 07:23:29;;;;;;;16.10;14.35;;;;;;;15.32;100.00;98532.20;1767834;81;21504;-71
2022/09/15 07:26:25;;;;;;;13.65;12.43;;;;;;;15.46;100.00;98522.09;1767988;79;21537;-72
2022/09/15 07:28:58;;;;;;;17.32;14.90;;;;;;;15.51;100.00;98531.48;1758767;81;21197;-71
2022/09/15 07:31:28;;;;;;;13.75;11.75;;;;;;;15.60;100.00;98530.17;1769927;79;21121;-72
2022/09/15 07:33:55;;;;;;;15.43;13.55;;;;;;;15.69;100.00;98530.45;1743402;81;21052;-73
2022/09/15 07:36:22;;;;;;;12.82;11.70;;;;;;;15.65;100.00;98534.91;1769388;81;21029;-72
2022/09/15 07:38:49;;;;;;;16.32;11.03;;;;;;;15.59;100.00;98536.14;1769438;81;21531;-71
2022/09/15 07:41:23;;;;;;;13.85;12.47;;;;;;;15.57;100.00;98535.67;1747759;80;21154;-72
2022/09/15 07:43:52;;;;;;;;;;;;;;;15.56;100.00;98530.00;1788079;80;21054;-72
2022/09/15 07:46:20;;;;;;;12.63;11.28;;;;;;;15.62;100.00;98532.83;1771318;80;20629;-73
2022/09/15 07:48:49;;;;;;;13.62;12.33;;;;;;;15.66;100.00;98528.38;1760850;81;21744;-74
2022/09/15 07:51:17;;;;;;;12.30;11.00;;;;;;;15.66;100.00;98520.25;1730945;81;21043;-74
2022/09/15 07:53:45;;;;;;;20.23;12.35;;;;;;;15.67;100.00;98521.05;1729984;82;22143;-75
2022/09/15 07:56:11;;;;;;;13.28;12.00;;;;;;;15.67;100.00;98510.20;1719237;81;21011;-73
2022/09/15 07:58:38;;;;;;;13.43;12.05;;;;;;;15.76;100.00;98510.25;1730284;81;21054;-71
2022/09/15 08:01:07;;;;;;;12.05;10.93;;;;;;;15.88;100.00;98511.80;1734545;81;21054;-73
2022/09/15 08:03:33;;;;;;;12.37;11.18;;;;;;;15.92;100.00;98511.44;1731771;81;21010;-72
2022/09/15 08:06:06;;;;;;;14.35;12.60;;;;;;;15.91;100.00;98503.86;1733860;81;21784;-73
2022/09/15 08:08:31;;;;;;;16.93;12.28;;;;;;;15.96;100.00;98501.56;1733055;81;21090;-72
2022/09/15 08:11:02;;;;;;;15.50;14.10;;;;;;;15.99;100.00;98500.37;1707869;82;21058;-74
2022/09/15 08:13:29;;;;;;;15.30;13.00;;;;;;;16.03;100.00;98499.17;1708474;82;21037;-73
2022/09/15 08:15:56;;;;;;;15.98;14.33;;;;;;;15.98;100.00;98496.05;1730675;81;21059;-73
2022/09/15 08:18:22;;;;;;;18.62;16.35;;;;;;;15.97;100.00;98496.38;1727688;81;21642;-70
2022/09/15 08:20:52;;;;;;;18.92;17.05;;;;;;;15.96;100.00;98498.84;1730520;81;21139;-73
2022/09/15 08:23:18;;;;;;;17.32;15.65;;;;;;;15.97;100.00;98499.87;1729858;81;21114;-73
2022/09/15 08:25:46;;;;;;;19.42;16.80;;;;;;;16.01;100.00;98488.66;1730782;81;21046;-71
2022/09/15 08:28:14;;;;;;;18.60;16.60;;;;;;;16.03;100.00;98489.68;1730993;81;21079;-71
2022/09/15 08:30:42;;;;;;;22.22;15.58;;;;;;;16.09;100.00;98494.66;1729182;81;21141;-75
2022/09/15 08:33:13;;;;;;;18.35;16.42;;;;;;;16.15;100.00;98491.25;1730106;81;21500;-71
2022/09/15 08:35:40;;;;;;;16.67;14.95;;;;;;;16.21;100.00;98490.55;1731279;81;21078;-72
2022/09/15 08:38:09;;;;;;;14.87;13.55;;;;;;;16.20;100.00;98487.59;1730470;81;21059;-70
2022/09/15 08:40:37;;;;;;;15.63;13.75;;;;;;;16.24;100.00;98489.34;1685848;81;21630;-70
2022/09/15 08:43:09;;;;;;;16.82;15.03;;;;;;;16.31;100.00;98486.16;1709656;82;21312;-77
2022/09/15 08:45:45;;;;;;;28.90;24.77;;;;;;;16.34;100.00;98483.63;1735179;81;25049;-75
2022/09/15 08:48:14;;;;;;;22.20;17.42;;;;;;;16.38;100.00;98494.09;1736799;81;21123;-71
2022/09/15 08:50:46;;;;;;;18.50;16.17;;;;;;;16.42;100.00;98490.17;1749938;81;21050;-74
2022/09/15 08:53:19;;;;;;;18.10;15.25;;;;;;;16.46;100.00;98496.00;1730942;82;21044;-75
2022/09/15 08:55:55;;;;;;;15.13;13.40;;;;;;;16.53;100.00;98494.19;1737612;81;21881;-73
2022/09/15 08:58:28;;;;;;;12.05;10.98;;;;;;;16.56;100.00;98488.11;1749451;81;21599;-73
2022/09/15 09:01:17;;;;;;;15.68;14.13;;;;;;;16.61;100.00;98487.19;1734320;81;21063;-75
2022/09/15 09:04:00;;;;;;;12.90;11.63;;;;;;;16.60;100.00;98485.03;1729321;83;21047;-75
2022/09/15 09:07:12;;;;;;;14.68;13.08;;;;;;;16.66;100.00;98485.67;1729210;81;21358;-72
2022/09/15 09:09:59;;;;;;;12.60;11.40;;;;;;;16.66;100.00;98489.75;1722573;81;21141;-71
2022/09/15 09:12:34;;;;;;;17.23;13.72;;;;;;;16.70;100.00;98478.48;1739531;81;21054;-73
2022/09/15 09:15:46;;;;;;;14.58;11.55;;;;;;;16.72;100.00;98478.98;1736985;81;21031;-71
2022/09/15 09:18:24;;;;;;;13.95;12.45;;;;;;;16.73;100.00;98477.31;1730378;82;21063;-71
2022/09/15 09:20:57;;;;;;;13.78;12.43;;;;;;;16.77;100.00;98477.46;1734710;82;21510;-71
2022/09/15 09:23:26;;;;;;;14.03;11.90;;;;;;;16.82;100.00;98475.95;1747137;81;21493;-70
2022/09/15 09:25:52;;;;;;;15.95;14.30;;;;;;;16.89;100.00;98473.53;1752683;81;21083;-69
2022/09/15 09:28:33;;;;;;;17.87;13.10;;;;;;;16.89;100.00;98471.61;1738927;81;21089;-70
2022/09/15 09:31:06;;;;;;;12.47;11.38;;;;;;;16.93;100.00;98462.26;1711561;82;21389;-69
2022/09/15 09:34:00;;;;;;;16.97;13.28;;;;;;;17.04;100.00;98466.80;1742593;81;20982;-69
2022/09/15 09:36:26;;;;;;;13.83;12.55;;;;;;;17.07;100.00;98466.18;1701873;81;21939;-71
2022/09/15 09:38:53;;;;;;;14.68;13.15;;;;;;;17.09;100.00;98466.64;1731807;81;21013;-70
2022/09/15 09:41:25;;;;;;;13.38;11.83;;;;;;;17.13;100.00;98468.39;1709843;82;21145;-72
2022/09/15 09:43:53;;;;;;;14.03;12.63;;;;;;;17.22;100.00;98468.36;1729167;82;21603;-71
2022/09/15 09:46:20;;;;;;;15.35;12.53;;;;;;;17.27;100.00;98469.00;1732423;81;21125;-69
2022/09/15 09:49:03;;;;;;;12.50;11.25;;;;;;;17.29;100.00;98475.48;1734828;82;21129;-72
2022/09/15 09:51:41;;;;;;;13.75;12.13;;;;;;;17.28;100.00;98465.16;1764455;79;21119;-70
2022/09/15 09:54:15;;;;;;;13.60;11.80;;;;;;;17.32;100.00;98466.66;1761402;80;21044;-71
2022/09/15 09:56:43;;;;;;;13.80;10.08;;;;;;;17.37;100.00;98474.64;1767472;80;21499;-69
2022/09/15 09:59:41;;;;;;;10.65;9.43;;;;;;;17.45;100.00;98476.56;1762767;80;21586;-76
2022/09/15 10:02:27;;;;;;;11.70;10.48;;;;;;;17.57;100.00;98478.59;1760254;80;21409;-76
2022/09/15 10:05:06;;;;;;;12.33;11.12;;;;;;;17.64;100.00;98481.09;1775441;80;22334;-66
2022/09/15 10:07:34;;;;;;;11.90;10.65;;;;;;;17.69;100.00;98480.91;1758385;80;21061;-66
2022/09/15 10:10:01;;;;;;;12.78;11.53;;;;;;;17.74;100.00;98486.17;1736790;81;21066;-69
2022/09/15 10:12:40;;;;;;;10.40;9.50;;;;;;;17.71;99.72;98486.81;1772386;80;21020;-68
2022/09/15 10:15:26;;;;;;;14.78;10.18;;;;;;;17.70;98.96;98496.64;1775201;80;21576;-70
2022/09/15 10:17:54;;;;;;;9.68;8.78;;;;;;;17.68;98.45;98487.47;1743408;80;21537;-67
2022/09/15 10:20:34;;;;;;;9.83;8.85;;;;;;;17.69;97.06;98490.44;1758567;81;21611;-70
2022/09/15 10:23:21;;;;;;;8.75;7.87;;;;;;;17.74;97.52;98491.61;1758373;81;21555;-71
2022/09/15 10:25:48;;;;;;;9.08;7.95;;;;;;;17.83;97.63;98480.70;1762588;80;21101;-70
2022/09/15 10:28:21;;;;;;;9.40;8.53;;;;;;;17.90;96.37;98487.77;1762700;80;21203;-67
2022/09/15 10:31:12;;;;;;;10.20;9.30;;;;;;;17.92;95.63;98484.73;1760317;80;21034;-71
2022/09/15 10:33:43;;;;;;;12.68;9.15;;;;;;;17.98;96.19;98476.07;1758419;80;21012;-68
2022/09/15 10:36:28;;;;;;;10.78;9.65;;;;;;;18.12;95.71;98480.72;1760174;80;21082;-72
2022/09/15 10:39:04;;;;;;;10.30;8.25;;;;;;;18.18;94.88;98482.66;1760958;80;21078;-72
2022/09/15 10:41:33;;;;;;;8.88;8.08;;;;;;;18.22;95.28;98491.20;1758472;80;21070;-68
2022/09/15 10:44:31;;;;;;;9.53;7.72;;;;;;;18.23;93.45;98492.80;1758674;81;21670;-69
2022/09/15 10:47:46;;;;;;;11.48;9.25;;;;;;;18.24;93.83;98486.23;1768496;80;21118;-70
2022/09/15 10:50:24;;;;;;;10.50;8.63;;;;;;;18.30;93.55;98484.13;1679914;83;21124;-67
2022/09/15 10:53:14;;;;;;;9.83;8.70;;;;;;;18.41;92.46;98468.20;1683989;84;21086;-67
2022/09/15 10:56:09;;;;;;;9.18;8.25;;;;;;;18.43;91.82;98459.13;1748787;79;22136;-70
2022/09/15 10:59:03;;;;;;;17.12;9.43;;;;;;;18.44;91.67;98466.17;1761843;79;21468;-69
2022/09/15 11:01:39;;;;;;;8.90;6.92;;;;;;;18.46;91.34;98457.12;1773811;79;21078;-73
2022/09/15 11:04:38;;;;;;;10.30;8.78;;;;;;;18.51;91.72;98462.37;1713177;82;21018;-73
2022/09/15 11:07:47;;;;;;;10.13;9.13;;;;;;;18.59;91.95;98465.62;1760008;79;21038;-73
2022/09/15 11:10:44;;;;;;;10.85;8.23;;;;;;;18.68;90.86;98466.34;1777128;79;21115;-70
2022/09/15 11:13:32;;;;;;;11.85;9.00;;;;;;;18.67;89.69;98472.35;1785464;80;21030;-69
2022/09/15 11:16:25;;;;;;;9.65;8.23;;;;;;;18.62;89.31;98471.19;1781378;79;21859;-69
2022/09/15 11:19:31;;;;;;;10.63;9.40;;;;;;;18.52;89.07;98465.30;1786230;79;21028;-71
2022/09/15 11:22:12;;;;;;;8.55;7.83;;;;;;;18.45;89.84;98460.41;1786467;80;21095;-73
2022/09/15 11:24:52;;;;;;;9.68;8.18;;;;;;;18.48;90.51;98458.38;1780189;79;21157;-71
2022/09/15 11:27:39;;;;;;;9.43;8.53;;;;;;;18.50;90.41;98455.33;1771749;79;20973;-72
2022/09/15 11:30:22;;;;;;;9.30;8.40;;;;;;;18.48;90.33;98453.48;1788362;80;21012;-70
2022/09/15 11:32:59;;;;;;;8.07;7.27;;;;;;;18.46;89.99;98448.95;1787984;80;21043;-72
2022/09/15 11:35:48;;;;;;;8.98;8.10;;;;;;;18.60;89.96;98445.43;1786786;79;20927;-73
2022/09/15 11:38:36;;;;;;;9.38;7.72;;;;;;;18.60;89.96;98445.43;1778594;79;21263;-72
2022/09/15 11:41:33;;;;;;;11.75;9.73;;;;;;;18.67;89.48;98441.59;1763723;80;21138;-74